Terminal Aerodrome Forecast
Issued by NWS

Home | Current Version | Previous Version | Text Only | Print | Product List | Glossary On
Versions: 1 2 3 4 5 6 7 8 9 10 11 12 13 14 15 16 17 18 19 20 21 22
207
FTUS41 KPBZ 281502 AAB
TAFBVI
TAF AMD
KBVI 281502Z 2815/2912 00000KT P6SM SCT250
     FM281600 18005KT P6SM OVC015
     FM281900 20008KT P6SM VCTS BKN035CB
     FM282300 21008KT 5SM -SHRA VCTS OVC035CB
     FM290300 20008KT 5SM -SHRA BR OVC035
     FM290700 25010KT P6SM VCSH BKN020
      AMD NOT SKED=

USA.gov is the U.S. government's official web portal to all federal, state and local government web resources and services.